Terminal Aerodrome Forecast
Issued by NWS

Home | Current Version | Previous Version | Text Only | Print | Product List | Glossary On
Versions: 1 2 3 4 5 6 7 8 9 10 11 12 13 14
887
FTUS45 KABQ 191139
TAFSAF
TAF
KSAF 191139Z 1912/2012 13015G25KT P6SM SKC
     FM191700 16020G30KT P6SM SCT250
     FM192100 16025G35KT P6SM SCT110
     FM200100 14038G48KT P6SM VCSH BKN060
     FM200800 16022G32KT P6SM VCSH BKN050=

USA.gov is the U.S. government's official web portal to all federal, state and local government web resources and services.